Zooks Dam, Pennsylvania
Current Conditions -  °F | °C
As of 10:53 AM on Thursday 18 Dec 2014 (Local Time) from KSEG Reporting Station
Overcast Overcast  
Wind Chill: -1°   Ceiling: 3600
Heat Index:   Visibility: 10mi
Dew Point: -6°   Wind: 8mph
Humidity: 57%   Direction: 280°W
Pressure: 30.09"   Gusts: NA
Location:  40.5853°N, 77.3611°W
Report Text: KSEG 181553Z AUTO 28007KT 10SM OVC036 02/M06 A3009 RMK AO2 SLP193 T00221056
Loading
Personal Weather Stations






























Interactive Weather Map New forecast layout! Learn more

10-Day Weather Forecast

Advertisements
Track Severe Weather on mobile